Warners, New York
Current Conditions -  °F | °C
As of 11:54 PM on Monday 20 Oct 2014 (Local Time) from KSYR Reporting Station
Light Rain Light Rain  
Wind Chill: 12°   Ceiling: 4000
Heat Index: 12°   Visibility: 8mi
Dew Point:   Wind: 0mph
Humidity: 71%   Direction: NA
Pressure: 29.88"   Gusts: NA
Location:  43.09°N, 76.33°W
Report Text: KSYR 210354Z 00000KT 8SM -RA FEW025 BKN040 OVC055 12/07 A2988 RMK SLP116 T01190067
Loading
Personal Weather Stations






























Interactive Weather Map
Tropical Storm Tracking
New forecast layout! Learn more

10-Day Weather Forecast

Advertisements
Track Severe Weather on mobile